sensor_id;sensor_type;location;lat;lon;timestamp;P1;durP1;ratioP1;P2;durP2;ratioP2
7527;SDS011;3805;49.006;8.514;2024-01-15T00:01:54;34.73;;;16.77;;
7527;SDS011;3805;49.006;8.514;2024-01-15T00:04:42;40.70;;;18.67;;
7527;SDS011;3805;49.006;8.514;2024-01-15T00:07:31;40.03;;;17.80;;
7527;SDS011;3805;49.006;8.514;2024-01-15T00:10:19;40.30;;;18.83;;
7527;SDS011;3805;49.006;8.514;2024-01-15T00:13:09;33.73;;;19.10;;
7527;SDS011;3805;49.006;8.514;2024-01-15T00:15:58;40.37;;;19.27;;
7527;SDS011;3805;49.006;8.514;2024-01-15T00:18:46;38.83;;;19.70;;
7527;SDS011;3805;49.006;8.514;2024-01-15T00:21:35;40.13;;;21.80;;
7527;SDS011;3805;49.006;8.514;2024-01-15T00:24:24;43.83;;;20.40;;
7527;SDS011;3805;49.006;8.514;2024-01-15T00:27:13;41.17;;;20.03;;
7527;SDS011;3805;49.006;8.514;2024-01-15T00:30:03;45.63;;;21.87;;
7527;SDS011;3805;49.006;8.514;2024-01-15T00:32:53;46.27;;;21.40;;
7527;SDS011;3805;49.006;8.514;2024-01-15T00:35:41;50.53;;;22.30;;
7527;SDS011;3805;49.006;8.514;2024-01-15T00:38:30;47.23;;;21.87;;
7527;SDS011;3805;49.006;8.514;2024-01-15T00:41:19;45.27;;;21.33;;
7527;SDS011;3805;49.006;8.514;2024-01-15T00:44:08;49.63;;;23.10;;
7527;SDS011;3805;49.006;8.514;2024-01-15T00:47:05;47.63;;;22.80;;
7527;SDS011;3805;49.006;8.514;2024-01-15T00:49:54;46.50;;;20.37;;
7527;SDS011;3805;49.006;8.514;2024-01-15T00:52:43;36.57;;;19.43;;
7527;SDS011;3805;49.006;8.514;2024-01-15T00:55:31;48.53;;;24.43;;
7527;SDS011;3805;49.006;8.514;2024-01-15T00:58:20;42.37;;;21.33;;
7527;SDS011;3805;49.006;8.514;2024-01-15T01:01:09;49.83;;;21.40;;
7527;SDS011;3805;49.006;8.514;2024-01-15T01:03:59;46.13;;;22.30;;
7527;SDS011;3805;49.006;8.514;2024-01-15T01:06:48;55.00;;;25.47;;
7527;SDS011;3805;49.006;8.514;2024-01-15T01:09:36;51.27;;;21.97;;
7527;SDS011;3805;49.006;8.514;2024-01-15T01:12:25;59.37;;;23.60;;
7527;SDS011;3805;49.006;8.514;2024-01-15T01:15:13;39.73;;;21.80;;
7527;SDS011;3805;49.006;8.514;2024-01-15T01:18:02;49.07;;;24.17;;
7527;SDS011;3805;49.006;8.514;2024-01-15T01:20:53;54.80;;;23.97;;
7527;SDS011;3805;49.006;8.514;2024-01-15T01:23:42;49.70;;;22.17;;
7527;SDS011;3805;49.006;8.514;2024-01-15T01:26:31;49.37;;;21.60;;
7527;SDS011;3805;49.006;8.514;2024-01-15T01:29:19;44.70;;;21.83;;
7527;SDS011;3805;49.006;8.514;2024-01-15T01:32:08;48.80;;;22.80;;
7527;SDS011;3805;49.006;8.514;2024-01-15T01:34:57;41.43;;;22.43;;
7527;SDS011;3805;49.006;8.514;2024-01-15T01:37:47;50.53;;;22.73;;
7527;SDS011;3805;49.006;8.514;2024-01-15T01:40:36;45.80;;;20.60;;
7527;SDS011;3805;49.006;8.514;2024-01-15T01:43:25;45.33;;;20.30;;
7527;SDS011;3805;49.006;8.514;2024-01-15T01:46:13;40.07;;;21.53;;
7527;SDS011;3805;49.006;8.514;2024-01-15T01:49:02;46.70;;;19.67;;
7527;SDS011;3805;49.006;8.514;2024-01-15T01:51:52;42.50;;;21.27;;
7527;SDS011;3805;49.006;8.514;2024-01-15T01:54:43;43.67;;;22.63;;
7527;SDS011;3805;49.006;8.514;2024-01-15T01:57:32;52.87;;;22.83;;
7527;SDS011;3805;49.006;8.514;2024-01-15T02:00:22;42.93;;;21.20;;
7527;SDS011;3805;49.006;8.514;2024-01-15T02:03:10;52.53;;;21.17;;
7527;SDS011;3805;49.006;8.514;2024-01-15T02:05:59;41.80;;;21.17;;
7527;SDS011;3805;49.006;8.514;2024-01-15T02:08:48;45.90;;;20.73;;
7527;SDS011;3805;49.006;8.514;2024-01-15T02:11:39;52.83;;;22.70;;
7527;SDS011;3805;49.006;8.514;2024-01-15T02:14:27;49.37;;;21.23;;
7527;SDS011;3805;49.006;8.514;2024-01-15T02:17:16;41.67;;;20.27;;
7527;SDS011;3805;49.006;8.514;2024-01-15T02:20:05;41.77;;;22.07;;
7527;SDS011;3805;49.006;8.514;2024-01-15T02:23:01;45.00;;;21.43;;
7527;SDS011;3805;49.006;8.514;2024-01-15T02:25:53;42.17;;;20.93;;
7527;SDS011;3805;49.006;8.514;2024-01-15T02:28:42;37.27;;;17.33;;
7527;SDS011;3805;49.006;8.514;2024-01-15T02:31:31;37.87;;;20.17;;
7527;SDS011;3805;49.006;8.514;2024-01-15T02:34:20;42.67;;;21.60;;
7527;SDS011;3805;49.006;8.514;2024-01-15T02:37:09;51.77;;;21.67;;
7527;SDS011;3805;49.006;8.514;2024-01-15T02:39:59;47.40;;;22.20;;
7527;SDS011;3805;49.006;8.514;2024-01-15T02:42:48;43.43;;;22.10;;
7527;SDS011;3805;49.006;8.514;2024-01-15T02:45:37;43.83;;;21.43;;
7527;SDS011;3805;49.006;8.514;2024-01-15T02:48:25;50.03;;;23.50;;
7527;SDS011;3805;49.006;8.514;2024-01-15T02:51:14;48.40;;;21.90;;
7527;SDS011;3805;49.006;8.514;2024-01-15T02:54:03;39.20;;;21.60;;
7527;SDS011;3805;49.006;8.514;2024-01-15T02:56:53;41.57;;;19.43;;
7527;SDS011;3805;49.006;8.514;2024-01-15T02:59:42;44.00;;;21.40;;
7527;SDS011;3805;49.006;8.514;2024-01-15T03:02:30;43.40;;;20.87;;
7527;SDS011;3805;49.006;8.514;2024-01-15T03:05:19;40.77;;;21.50;;
7527;SDS011;3805;49.006;8.514;2024-01-15T03:08:08;52.53;;;19.83;;
7527;SDS011;3805;49.006;8.514;2024-01-15T03:10:56;42.87;;;21.17;;
7527;SDS011;3805;49.006;8.514;2024-01-15T03:13:47;48.37;;;23.57;;
7527;SDS011;3805;49.006;8.514;2024-01-15T03:16:36;41.10;;;19.83;;
7527;SDS011;3805;49.006;8.514;2024-01-15T03:19:24;40.63;;;21.53;;
7527;SDS011;3805;49.006;8.514;2024-01-15T03:22:13;44.13;;;23.20;;
7527;SDS011;3805;49.006;8.514;2024-01-15T03:25:02;51.60;;;24.83;;
7527;SDS011;3805;49.006;8.514;2024-01-15T03:27:51;46.83;;;21.10;;
7527;SDS011;3805;49.006;8.514;2024-01-15T03:30:41;45.93;;;20.30;;
7527;SDS011;3805;49.006;8.514;2024-01-15T03:33:29;52.70;;;24.10;;
7527;SDS011;3805;49.006;8.514;2024-01-15T03:36:18;48.50;;;22.73;;
7527;SDS011;3805;49.006;8.514;2024-01-15T03:39:07;37.67;;;21.43;;
7527;SDS011;3805;49.006;8.514;2024-01-15T03:41:56;39.27;;;21.90;;
7527;SDS011;3805;49.006;8.514;2024-01-15T03:44:44;47.40;;;21.23;;
7527;SDS011;3805;49.006;8.514;2024-01-15T03:47:34;44.57;;;20.40;;
7527;SDS011;3805;49.006;8.514;2024-01-15T03:50:23;48.03;;;22.13;;
7527;SDS011;3805;49.006;8.514;2024-01-15T03:53:11;43.43;;;22.40;;
7527;SDS011;3805;49.006;8.514;2024-01-15T03:56:00;44.87;;;20.10;;
7527;SDS011;3805;49.006;8.514;2024-01-15T03:58:48;37.33;;;22.37;;
7527;SDS011;3805;49.006;8.514;2024-01-15T04:01:37;44.03;;;20.07;;
7527;SDS011;3805;49.006;8.514;2024-01-15T04:04:27;37.23;;;21.80;;
7527;SDS011;3805;49.006;8.514;2024-01-15T04:07:15;46.70;;;22.13;;
7527;SDS011;3805;49.006;8.514;2024-01-15T04:10:04;39.23;;;20.10;;
7527;SDS011;3805;49.006;8.514;2024-01-15T04:12:53;38.53;;;21.30;;
7527;SDS011;3805;49.006;8.514;2024-01-15T04:15:42;43.17;;;22.10;;
7527;SDS011;3805;49.006;8.514;2024-01-15T04:18:31;43.07;;;21.03;;
7527;SDS011;3805;49.006;8.514;2024-01-15T04:21:21;39.00;;;21.53;;
7527;SDS011;3805;49.006;8.514;2024-01-15T04:24:09;46.60;;;21.33;;
7527;SDS011;3805;49.006;8.514;2024-01-15T04:26:58;43.83;;;20.00;;
7527;SDS011;3805;49.006;8.514;2024-01-15T04:29:47;43.03;;;19.60;;
7527;SDS011;3805;49.006;8.514;2024-01-15T04:32:35;43.50;;;20.83;;
7527;SDS011;3805;49.006;8.514;2024-01-15T04:35:24;40.60;;;20.60;;
7527;SDS011;3805;49.006;8.514;2024-01-15T04:38:14;44.37;;;20.30;;
7527;SDS011;3805;49.006;8.514;2024-01-15T04:41:03;50.67;;;23.50;;
7527;SDS011;3805;49.006;8.514;2024-01-15T04:43:51;42.03;;;18.17;;
7527;SDS011;3805;49.006;8.514;2024-01-15T04:46:40;45.17;;;21.57;;
7527;SDS011;3805;49.006;8.514;2024-01-15T04:49:30;45.33;;;21.33;;
7527;SDS011;3805;49.006;8.514;2024-01-15T04:52:19;38.63;;;20.30;;
7527;SDS011;3805;49.006;8.514;2024-01-15T04:55:09;42.03;;;20.80;;
7527;SDS011;3805;49.006;8.514;2024-01-15T04:57:58;38.00;;;17.77;;
7527;SDS011;3805;49.006;8.514;2024-01-15T05:00:46;42.00;;;20.07;;
7527;SDS011;3805;49.006;8.514;2024-01-15T05:03:35;38.20;;;20.00;;
7527;SDS011;3805;49.006;8.514;2024-01-15T05:06:23;49.60;;;19.70;;
7527;SDS011;3805;49.006;8.514;2024-01-15T05:09:12;37.77;;;18.83;;
7527;SDS011;3805;49.006;8.514;2024-01-15T05:12:03;37.47;;;19.70;;
7527;SDS011;3805;49.006;8.514;2024-01-15T05:14:52;41.83;;;20.90;;
7527;SDS011;3805;49.006;8.514;2024-01-15T05:17:40;41.77;;;21.53;;
7527;SDS011;3805;49.006;8.514;2024-01-15T05:20:29;41.87;;;20.67;;
7527;SDS011;3805;49.006;8.514;2024-01-15T05:23:18;40.83;;;19.30;;
7527;SDS011;3805;49.006;8.514;2024-01-15T05:26:07;39.97;;;21.17;;
7527;SDS011;3805;49.006;8.514;2024-01-15T05:28:57;38.47;;;20.00;;
7527;SDS011;3805;49.006;8.514;2024-01-15T05:31:46;35.67;;;20.20;;
7527;SDS011;3805;49.006;8.514;2024-01-15T05:34:35;35.57;;;19.00;;
7527;SDS011;3805;49.006;8.514;2024-01-15T05:37:24;36.30;;;20.10;;
7527;SDS011;3805;49.006;8.514;2024-01-15T05:40:12;39.77;;;19.33;;
7527;SDS011;3805;49.006;8.514;2024-01-15T05:43:01;38.60;;;20.13;;
7527;SDS011;3805;49.006;8.514;2024-01-15T05:45:51;47.30;;;21.70;;
7527;SDS011;3805;49.006;8.514;2024-01-15T05:48:40;41.87;;;19.97;;
7527;SDS011;3805;49.006;8.514;2024-01-15T05:51:28;42.57;;;20.77;;
7527;SDS011;3805;49.006;8.514;2024-01-15T05:54:18;37.90;;;21.93;;
7527;SDS011;3805;49.006;8.514;2024-01-15T05:57:06;41.27;;;22.50;;
7527;SDS011;3805;49.006;8.514;2024-01-15T05:59:55;40.03;;;21.90;;
7527;SDS011;3805;49.006;8.514;2024-01-15T06:02:45;37.43;;;19.30;;
7527;SDS011;3805;49.006;8.514;2024-01-15T06:05:34;40.00;;;21.80;;
7527;SDS011;3805;49.006;8.514;2024-01-15T06:08:22;47.63;;;22.30;;
7527;SDS011;3805;49.006;8.514;2024-01-15T06:11:13;35.73;;;19.87;;
7527;SDS011;3805;49.006;8.514;2024-01-15T06:14:02;44.33;;;20.10;;
7527;SDS011;3805;49.006;8.514;2024-01-15T06:16:51;47.23;;;21.80;;
7527;SDS011;3805;49.006;8.514;2024-01-15T06:19:41;38.90;;;20.63;;
7527;SDS011;3805;49.006;8.514;2024-01-15T06:22:30;40.43;;;21.40;;
7527;SDS011;3805;49.006;8.514;2024-01-15T06:25:19;35.17;;;20.50;;
7527;SDS011;3805;49.006;8.514;2024-01-15T06:28:07;42.27;;;21.20;;
7527;SDS011;3805;49.006;8.514;2024-01-15T06:30:57;39.73;;;20.60;;
7527;SDS011;3805;49.006;8.514;2024-01-15T06:33:45;35.73;;;19.63;;
7527;SDS011;3805;49.006;8.514;2024-01-15T06:36:37;43.67;;;21.40;;
7527;SDS011;3805;49.006;8.514;2024-01-15T06:39:25;38.30;;;20.90;;
7527;SDS011;3805;49.006;8.514;2024-01-15T06:42:14;44.67;;;21.93;;
7527;SDS011;3805;49.006;8.514;2024-01-15T06:45:03;34.70;;;19.50;;
7527;SDS011;3805;49.006;8.514;2024-01-15T06:47:52;40.70;;;21.33;;
7527;SDS011;3805;49.006;8.514;2024-01-15T06:50:41;45.80;;;20.70;;
7527;SDS011;3805;49.006;8.514;2024-01-15T06:53:31;46.20;;;21.20;;
7527;SDS011;3805;49.006;8.514;2024-01-15T06:56:19;37.43;;;21.43;;
7527;SDS011;3805;49.006;8.514;2024-01-15T06:59:08;46.63;;;22.17;;
7527;SDS011;3805;49.006;8.514;2024-01-15T07:01:57;35.80;;;20.60;;
7527;SDS011;3805;49.006;8.514;2024-01-15T07:04:46;40.23;;;20.33;;
7527;SDS011;3805;49.006;8.514;2024-01-15T07:07:35;42.23;;;22.60;;
7527;SDS011;3805;49.006;8.514;2024-01-15T07:10:25;48.10;;;25.10;;
7527;SDS011;3805;49.006;8.514;2024-01-15T07:13:14;39.73;;;21.43;;
7527;SDS011;3805;49.006;8.514;2024-01-15T07:16:02;46.40;;;22.53;;
7527;SDS011;3805;49.006;8.514;2024-01-15T07:18:52;47.93;;;22.53;;
7527;SDS011;3805;49.006;8.514;2024-01-15T07:21:40;45.70;;;23.10;;
7527;SDS011;3805;49.006;8.514;2024-01-15T07:24:30;39.73;;;20.47;;
7527;SDS011;3805;49.006;8.514;2024-01-15T07:27:22;44.43;;;23.47;;
7527;SDS011;3805;49.006;8.514;2024-01-15T07:30:11;48.20;;;23.80;;
7527;SDS011;3805;49.006;8.514;2024-01-15T07:33:00;42.60;;;25.10;;
7527;SDS011;3805;49.006;8.514;2024-01-15T07:35:51;47.70;;;25.67;;
7527;SDS011;3805;49.006;8.514;2024-01-15T07:38:40;47.43;;;22.00;;
7527;SDS011;3805;49.006;8.514;2024-01-15T07:41:30;46.83;;;22.77;;
7527;SDS011;3805;49.006;8.514;2024-01-15T07:44:20;43.37;;;22.53;;
7527;SDS011;3805;49.006;8.514;2024-01-15T07:47:09;36.27;;;20.30;;
7527;SDS011;3805;49.006;8.514;2024-01-15T07:49:57;40.60;;;20.70;;
7527;SDS011;3805;49.006;8.514;2024-01-15T07:52:52;40.40;;;23.60;;
7527;SDS011;3805;49.006;8.514;2024-01-15T07:55:41;36.70;;;21.53;;
7527;SDS011;3805;49.006;8.514;2024-01-15T07:58:30;43.23;;;23.27;;
7527;SDS011;3805;49.006;8.514;2024-01-15T08:01:20;38.70;;;20.03;;
7527;SDS011;3805;49.006;8.514;2024-01-15T08:04:09;36.73;;;21.40;;
7527;SDS011;3805;49.006;8.514;2024-01-15T08:07:00;38.50;;;22.23;;
7527;SDS011;3805;49.006;8.514;2024-01-15T08:09:50;38.73;;;22.57;;
7527;SDS011;3805;49.006;8.514;2024-01-15T08:12:38;40.87;;;21.20;;
7527;SDS011;3805;49.006;8.514;2024-01-15T08:15:27;36.27;;;21.00;;
7527;SDS011;3805;49.006;8.514;2024-01-15T08:18:19;46.70;;;20.77;;
7527;SDS011;3805;49.006;8.514;2024-01-15T08:21:09;46.63;;;24.03;;
7527;SDS011;3805;49.006;8.514;2024-01-15T08:23:59;43.63;;;22.67;;
7527;SDS011;3805;49.006;8.514;2024-01-15T08:26:49;39.63;;;20.20;;
7527;SDS011;3805;49.006;8.514;2024-01-15T08:29:39;44.93;;;23.13;;
7527;SDS011;3805;49.006;8.514;2024-01-15T08:32:28;38.43;;;21.80;;
7527;SDS011;3805;49.006;8.514;2024-01-15T08:35:18;41.37;;;22.83;;
7527;SDS011;3805;49.006;8.514;2024-01-15T08:38:09;36.03;;;20.57;;
7527;SDS011;3805;49.006;8.514;2024-01-15T08:40:58;44.43;;;21.30;;
7527;SDS011;3805;49.006;8.514;2024-01-15T08:43:47;38.70;;;19.37;;
7527;SDS011;3805;49.006;8.514;2024-01-15T08:46:36;44.90;;;21.63;;
7527;SDS011;3805;49.006;8.514;2024-01-15T08:49:24;34.30;;;20.00;;
7527;SDS011;3805;49.006;8.514;2024-01-15T08:52:14;33.27;;;19.37;;
7527;SDS011;3805;49.006;8.514;2024-01-15T08:55:03;34.17;;;18.40;;
7527;SDS011;3805;49.006;8.514;2024-01-15T08:57:54;31.47;;;19.07;;
7527;SDS011;3805;49.006;8.514;2024-01-15T09:00:42;38.40;;;19.93;;
7527;SDS011;3805;49.006;8.514;2024-01-15T09:03:31;36.10;;;18.10;;
7527;SDS011;3805;49.006;8.514;2024-01-15T09:06:21;32.27;;;18.30;;
7527;SDS011;3805;49.006;8.514;2024-01-15T09:09:11;32.50;;;20.30;;
7527;SDS011;3805;49.006;8.514;2024-01-15T09:12:00;35.80;;;18.00;;
7527;SDS011;3805;49.006;8.514;2024-01-15T09:14:48;36.63;;;18.63;;
7527;SDS011;3805;49.006;8.514;2024-01-15T09:17:37;31.17;;;19.10;;
7527;SDS011;3805;49.006;8.514;2024-01-15T09:20:26;36.03;;;21.33;;
7527;SDS011;3805;49.006;8.514;2024-01-15T09:23:15;43.33;;;20.83;;
7527;SDS011;3805;49.006;8.514;2024-01-15T09:26:06;30.30;;;17.70;;
7527;SDS011;3805;49.006;8.514;2024-01-15T09:28:56;41.07;;;20.67;;
7527;SDS011;3805;49.006;8.514;2024-01-15T09:31:45;31.37;;;18.17;;
7527;SDS011;3805;49.006;8.514;2024-01-15T09:34:34;32.43;;;17.57;;
7527;SDS011;3805;49.006;8.514;2024-01-15T09:37:22;34.73;;;18.50;;
7527;SDS011;3805;49.006;8.514;2024-01-15T09:40:31;30.03;;;17.10;;
7527;SDS011;3805;49.006;8.514;2024-01-15T09:43:22;35.67;;;21.20;;
7527;SDS011;3805;49.006;8.514;2024-01-15T09:46:10;32.30;;;19.90;;
7527;SDS011;3805;49.006;8.514;2024-01-15T09:49:00;32.80;;;18.93;;
7527;SDS011;3805;49.006;8.514;2024-01-15T09:51:53;32.13;;;18.43;;
7527;SDS011;3805;49.006;8.514;2024-01-15T09:54:55;33.30;;;17.57;;
7527;SDS011;3805;49.006;8.514;2024-01-15T09:57:44;33.47;;;18.23;;
7527;SDS011;3805;49.006;8.514;2024-01-15T10:00:35;35.13;;;19.13;;
7527;SDS011;3805;49.006;8.514;2024-01-15T10:03:26;32.17;;;18.73;;
7527;SDS011;3805;49.006;8.514;2024-01-15T10:06:15;38.47;;;20.17;;
7527;SDS011;3805;49.006;8.514;2024-01-15T10:09:09;32.17;;;18.43;;
7527;SDS011;3805;49.006;8.514;2024-01-15T10:11:58;30.30;;;17.30;;
7527;SDS011;3805;49.006;8.514;2024-01-15T10:14:47;34.30;;;18.27;;
7527;SDS011;3805;49.006;8.514;2024-01-15T10:17:38;36.70;;;18.80;;
7527;SDS011;3805;49.006;8.514;2024-01-15T10:20:27;32.23;;;18.67;;
7527;SDS011;3805;49.006;8.514;2024-01-15T10:23:15;30.30;;;20.10;;
7527;SDS011;3805;49.006;8.514;2024-01-15T10:26:04;36.07;;;19.80;;
7527;SDS011;3805;49.006;8.514;2024-01-15T10:28:52;33.23;;;17.80;;
7527;SDS011;3805;49.006;8.514;2024-01-15T10:31:41;33.70;;;19.93;;
7527;SDS011;3805;49.006;8.514;2024-01-15T10:34:33;34.03;;;18.97;;
7527;SDS011;3805;49.006;8.514;2024-01-15T10:37:23;34.97;;;19.33;;
7527;SDS011;3805;49.006;8.514;2024-01-15T10:40:15;37.83;;;19.27;;
7527;SDS011;3805;49.006;8.514;2024-01-15T10:43:04;32.47;;;19.70;;
7527;SDS011;3805;49.006;8.514;2024-01-15T10:45:53;32.70;;;16.50;;
7527;SDS011;3805;49.006;8.514;2024-01-15T10:48:42;35.50;;;19.20;;
7527;SDS011;3805;49.006;8.514;2024-01-15T10:51:39;31.53;;;18.63;;
7527;SDS011;3805;49.006;8.514;2024-01-15T10:54:28;41.67;;;20.53;;
7527;SDS011;3805;49.006;8.514;2024-01-15T10:57:18;39.03;;;20.40;;
7527;SDS011;3805;49.006;8.514;2024-01-15T11:00:07;31.30;;;17.13;;
7527;SDS011;3805;49.006;8.514;2024-01-15T11:03:02;31.90;;;18.10;;
7527;SDS011;3805;49.006;8.514;2024-01-15T11:05:53;31.23;;;16.57;;
7527;SDS011;3805;49.006;8.514;2024-01-15T11:08:43;34.63;;;17.43;;
7527;SDS011;3805;49.006;8.514;2024-01-15T11:11:32;31.27;;;20.00;;
7527;SDS011;3805;49.006;8.514;2024-01-15T11:14:35;31.37;;;18.47;;
7527;SDS011;3805;49.006;8.514;2024-01-15T11:17:26;39.13;;;19.00;;
7527;SDS011;3805;49.006;8.514;2024-01-15T11:24:14;28.53;;;16.40;;
7527;SDS011;3805;49.006;8.514;2024-01-15T11:27:39;31.70;;;17.73;;
7527;SDS011;3805;49.006;8.514;2024-01-15T11:30:28;35.87;;;19.83;;
7527;SDS011;3805;49.006;8.514;2024-01-15T11:36:21;36.43;;;16.40;;
7527;SDS011;3805;49.006;8.514;2024-01-15T11:42:30;33.10;;;18.97;;
7527;SDS011;3805;49.006;8.514;2024-01-15T11:45:19;33.37;;;18.10;;
7527;SDS011;3805;49.006;8.514;2024-01-15T11:48:09;32.10;;;16.27;;
7527;SDS011;3805;49.006;8.514;2024-01-15T11:50:59;27.43;;;16.10;;
7527;SDS011;3805;49.006;8.514;2024-01-15T11:53:48;29.50;;;16.10;;
7527;SDS011;3805;49.006;8.514;2024-01-15T11:56:41;33.80;;;19.70;;
7527;SDS011;3805;49.006;8.514;2024-01-15T11:59:30;34.73;;;16.17;;
7527;SDS011;3805;49.006;8.514;2024-01-15T12:02:20;28.30;;;16.10;;
7527;SDS011;3805;49.006;8.514;2024-01-15T12:05:09;30.17;;;16.53;;
7527;SDS011;3805;49.006;8.514;2024-01-15T12:08:00;25.40;;;15.83;;
7527;SDS011;3805;49.006;8.514;2024-01-15T12:10:49;22.30;;;15.40;;
7527;SDS011;3805;49.006;8.514;2024-01-15T12:13:39;27.87;;;15.70;;
7527;SDS011;3805;49.006;8.514;2024-01-15T12:16:29;27.20;;;14.83;;
7527;SDS011;3805;49.006;8.514;2024-01-15T12:19:18;28.47;;;15.20;;
7527;SDS011;3805;49.006;8.514;2024-01-15T12:22:07;24.90;;;15.70;;
7527;SDS011;3805;49.006;8.514;2024-01-15T12:24:56;23.97;;;15.60;;
7527;SDS011;3805;49.006;8.514;2024-01-15T12:27:45;20.73;;;14.00;;
7527;SDS011;3805;49.006;8.514;2024-01-15T12:30:36;24.30;;;14.93;;
7527;SDS011;3805;49.006;8.514;2024-01-15T12:33:25;22.23;;;15.50;;
7527;SDS011;3805;49.006;8.514;2024-01-15T12:36:14;33.90;;;15.63;;
7527;SDS011;3805;49.006;8.514;2024-01-15T12:39:11;25.53;;;14.40;;
7527;SDS011;3805;49.006;8.514;2024-01-15T12:42:00;19.27;;;13.13;;
7527;SDS011;3805;49.006;8.514;2024-01-15T12:44:49;22.10;;;16.13;;
7527;SDS011;3805;49.006;8.514;2024-01-15T12:47:39;28.63;;;14.17;;
7527;SDS011;3805;49.006;8.514;2024-01-15T12:50:28;21.00;;;13.80;;
7527;SDS011;3805;49.006;8.514;2024-01-15T12:53:16;19.63;;;12.93;;
7527;SDS011;3805;49.006;8.514;2024-01-15T12:56:05;20.17;;;13.20;;
7527;SDS011;3805;49.006;8.514;2024-01-15T12:58:54;17.33;;;11.83;;
7527;SDS011;3805;49.006;8.514;2024-01-15T13:01:42;20.37;;;13.67;;
7527;SDS011;3805;49.006;8.514;2024-01-15T13:04:35;18.47;;;13.50;;
7527;SDS011;3805;49.006;8.514;2024-01-15T13:07:24;23.20;;;13.63;;
7527;SDS011;3805;49.006;8.514;2024-01-15T13:10:12;21.83;;;13.10;;
7527;SDS011;3805;49.006;8.514;2024-01-15T13:13:01;25.27;;;13.23;;
7527;SDS011;3805;49.006;8.514;2024-01-15T13:15:50;22.07;;;14.40;;
7527;SDS011;3805;49.006;8.514;2024-01-15T13:18:39;25.13;;;13.20;;
7527;SDS011;3805;49.006;8.514;2024-01-15T13:21:30;26.30;;;15.37;;
7527;SDS011;3805;49.006;8.514;2024-01-15T13:24:18;18.10;;;13.00;;
7527;SDS011;3805;49.006;8.514;2024-01-15T13:27:07;22.37;;;14.70;;
7527;SDS011;3805;49.006;8.514;2024-01-15T13:29:56;23.20;;;14.03;;
7527;SDS011;3805;49.006;8.514;2024-01-15T13:32:44;24.37;;;14.50;;
7527;SDS011;3805;49.006;8.514;2024-01-15T13:35:34;19.40;;;13.53;;
7527;SDS011;3805;49.006;8.514;2024-01-15T13:38:25;23.90;;;15.30;;
7527;SDS011;3805;49.006;8.514;2024-01-15T13:41:14;24.47;;;13.53;;
7527;SDS011;3805;49.006;8.514;2024-01-15T13:44:03;18.27;;;12.47;;
7527;SDS011;3805;49.006;8.514;2024-01-15T13:46:52;21.47;;;14.50;;
7527;SDS011;3805;49.006;8.514;2024-01-15T13:49:40;23.57;;;11.70;;
7527;SDS011;3805;49.006;8.514;2024-01-15T13:52:29;20.37;;;12.07;;
7527;SDS011;3805;49.006;8.514;2024-01-15T13:55:19;23.13;;;13.00;;
7527;SDS011;3805;49.006;8.514;2024-01-15T13:58:07;19.50;;;12.43;;
7527;SDS011;3805;49.006;8.514;2024-01-15T14:00:56;15.90;;;12.20;;
7527;SDS011;3805;49.006;8.514;2024-01-15T14:03:45;18.57;;;13.70;;
7527;SDS011;3805;49.006;8.514;2024-01-15T14:06:33;17.73;;;11.00;;
7527;SDS011;3805;49.006;8.514;2024-01-15T14:09:22;18.80;;;12.40;;
7527;SDS011;3805;49.006;8.514;2024-01-15T14:12:13;16.80;;;12.63;;
7527;SDS011;3805;49.006;8.514;2024-01-15T14:15:02;20.17;;;11.87;;
7527;SDS011;3805;49.006;8.514;2024-01-15T14:17:52;18.80;;;10.73;;
7527;SDS011;3805;49.006;8.514;2024-01-15T14:20:41;18.37;;;11.30;;
7527;SDS011;3805;49.006;8.514;2024-01-15T14:23:30;21.00;;;13.73;;
7527;SDS011;3805;49.006;8.514;2024-01-15T14:26:19;19.23;;;12.70;;
7527;SDS011;3805;49.006;8.514;2024-01-15T14:29:09;19.93;;;12.90;;
7527;SDS011;3805;49.006;8.514;2024-01-15T14:31:57;19.83;;;13.70;;
7527;SDS011;3805;49.006;8.514;2024-01-15T14:34:46;19.63;;;12.03;;
7527;SDS011;3805;49.006;8.514;2024-01-15T14:37:35;15.87;;;12.30;;
7527;SDS011;3805;49.006;8.514;2024-01-15T14:40:24;14.60;;;11.13;;
7527;SDS011;3805;49.006;8.514;2024-01-15T14:43:13;17.97;;;12.40;;
7527;SDS011;3805;49.006;8.514;2024-01-15T14:46:03;18.03;;;12.37;;
7527;SDS011;3805;49.006;8.514;2024-01-15T14:48:52;18.33;;;12.10;;
7527;SDS011;3805;49.006;8.514;2024-01-15T14:51:41;17.60;;;12.83;;
7527;SDS011;3805;49.006;8.514;2024-01-15T14:54:31;17.60;;;12.30;;
7527;SDS011;3805;49.006;8.514;2024-01-15T14:57:20;16.70;;;11.37;;
7527;SDS011;3805;49.006;8.514;2024-01-15T15:00:08;18.70;;;12.70;;
7527;SDS011;3805;49.006;8.514;2024-01-15T15:03:02;16.03;;;12.33;;
7527;SDS011;3805;49.006;8.514;2024-01-15T15:05:52;18.07;;;11.50;;
7527;SDS011;3805;49.006;8.514;2024-01-15T15:08:40;18.67;;;11.87;;
7527;SDS011;3805;49.006;8.514;2024-01-15T15:11:29;13.27;;;11.00;;
7527;SDS011;3805;49.006;8.514;2024-01-15T15:14:18;21.20;;;12.37;;
7527;SDS011;3805;49.006;8.514;2024-01-15T15:17:06;19.33;;;12.30;;
7527;SDS011;3805;49.006;8.514;2024-01-15T15:19:58;16.23;;;11.37;;
7527;SDS011;3805;49.006;8.514;2024-01-15T15:22:47;17.80;;;10.33;;
7527;SDS011;3805;49.006;8.514;2024-01-15T15:25:35;12.60;;;10.57;;
7527;SDS011;3805;49.006;8.514;2024-01-15T15:28:24;14.73;;;11.67;;
7527;SDS011;3805;49.006;8.514;2024-01-15T15:31:12;14.00;;;10.60;;
7527;SDS011;3805;49.006;8.514;2024-01-15T15:34:01;15.10;;;11.83;;
7527;SDS011;3805;49.006;8.514;2024-01-15T15:36:52;18.63;;;11.00;;
7527;SDS011;3805;49.006;8.514;2024-01-15T15:39:40;13.97;;;12.20;;
7527;SDS011;3805;49.006;8.514;2024-01-15T15:42:29;14.73;;;10.80;;
7527;SDS011;3805;49.006;8.514;2024-01-15T15:45:18;14.40;;;12.10;;
7527;SDS011;3805;49.006;8.514;2024-01-15T15:48:07;18.50;;;11.33;;
7527;SDS011;3805;49.006;8.514;2024-01-15T15:50:56;14.23;;;10.50;;
7527;SDS011;3805;49.006;8.514;2024-01-15T15:53:48;15.43;;;11.70;;
7527;SDS011;3805;49.006;8.514;2024-01-15T15:56:36;14.40;;;10.37;;
7527;SDS011;3805;49.006;8.514;2024-01-15T15:59:26;14.20;;;11.60;;
7527;SDS011;3805;49.006;8.514;2024-01-15T16:02:14;16.00;;;10.90;;
7527;SDS011;3805;49.006;8.514;2024-01-15T16:05:03;18.37;;;10.80;;
7527;SDS011;3805;49.006;8.514;2024-01-15T16:07:56;14.00;;;11.27;;
7527;SDS011;3805;49.006;8.514;2024-01-15T16:10:47;16.03;;;9.93;;
7527;SDS011;3805;49.006;8.514;2024-01-15T16:13:38;17.43;;;10.90;;
7527;SDS011;3805;49.006;8.514;2024-01-15T16:16:27;16.00;;;11.00;;
7527;SDS011;3805;49.006;8.514;2024-01-15T16:19:36;16.43;;;10.77;;
7527;SDS011;3805;49.006;8.514;2024-01-15T16:22:45;11.77;;;9.40;;
7527;SDS011;3805;49.006;8.514;2024-01-15T16:25:55;15.53;;;11.60;;
7527;SDS011;3805;49.006;8.514;2024-01-15T16:28:45;13.13;;;9.47;;
7527;SDS011;3805;49.006;8.514;2024-01-15T16:31:34;13.90;;;9.97;;
7527;SDS011;3805;49.006;8.514;2024-01-15T16:34:24;14.57;;;11.00;;
7527;SDS011;3805;49.006;8.514;2024-01-15T16:37:12;14.13;;;9.70;;
7527;SDS011;3805;49.006;8.514;2024-01-15T16:40:01;14.83;;;10.43;;
7527;SDS011;3805;49.006;8.514;2024-01-15T16:42:51;13.53;;;10.70;;
7527;SDS011;3805;49.006;8.514;2024-01-15T16:45:40;10.70;;;8.67;;
7527;SDS011;3805;49.006;8.514;2024-01-15T16:48:28;10.10;;;9.00;;
7527;SDS011;3805;49.006;8.514;2024-01-15T16:51:17;12.70;;;9.20;;
7527;SDS011;3805;49.006;8.514;2024-01-15T16:54:06;14.70;;;9.97;;
7527;SDS011;3805;49.006;8.514;2024-01-15T16:56:55;10.27;;;9.17;;
7527;SDS011;3805;49.006;8.514;2024-01-15T16:59:45;14.27;;;10.20;;
7527;SDS011;3805;49.006;8.514;2024-01-15T17:02:34;13.00;;;8.90;;
7527;SDS011;3805;49.006;8.514;2024-01-15T17:05:22;10.60;;;9.50;;
7527;SDS011;3805;49.006;8.514;2024-01-15T17:08:12;12.77;;;10.27;;
7527;SDS011;3805;49.006;8.514;2024-01-15T17:11:00;12.57;;;8.63;;
7527;SDS011;3805;49.006;8.514;2024-01-15T17:13:50;10.10;;;8.83;;